Time;durP1;ratioP1;P1;durP2;ratioP2;P2;SDS_P1;SDS_P2;PMS_P1;PMS_P2;Temp;Humidity;BMP_temperature;BMP_pressure;BME280_temperature;BME280_humidity;BME280_pressure;Samples;Min_cycle;Max_cycle;Signal;HPM_P1;HPM_P2
2023/10/07 00:02:36;;;;;;;7.40;4.68;;;15.90;99.90;;;;;;10091570;28;20032;-74
2023/10/07 00:07:30;;;;;;;8.85;4.13;;;16.00;99.90;;;;;;10090831;28;20053;-72
2023/10/07 00:12:21;;;;;;;8.98;4.63;;;15.90;99.90;;;;;;10087707;28;20038;-74
2023/10/07 00:17:18;;;;;;;8.55;4.72;;;15.80;99.90;;;;;;10085572;28;20570;-73
2023/10/07 00:22:09;;;;;;;13.30;5.03;;;15.80;99.90;;;;;;10084928;28;20036;-71
2023/10/07 00:26:59;;;;;;;8.88;5.30;;;15.80;99.90;;;;;;10077740;28;20360;-71
2023/10/07 00:31:52;;;;;;;17.75;5.20;;;15.70;99.90;;;;;;10092016;28;20076;-73
2023/10/07 00:36:43;;;;;;;8.65;4.82;;;15.80;99.90;;;;;;10093790;28;20037;-73
2023/10/07 00:41:58;;;;;;;10.10;4.78;;;15.70;99.90;;;;;;10095672;28;20021;-72
2023/10/07 00:47:00;;;;;;;8.38;4.40;;;15.60;99.90;;;;;;10084808;28;20041;-70
2023/10/07 00:51:52;;;;;;;10.60;4.65;;;15.60;99.90;;;;;;10096341;28;20018;-73
2023/10/07 00:56:59;;;;;;;9.98;4.90;;;15.50;99.90;;;;;;10098456;28;20043;-73
2023/10/07 01:01:57;;;;;;;10.07;5.13;;;15.50;99.90;;;;;;10094131;28;20409;-72
2023/10/07 01:06:48;;;;;;;10.32;5.13;;;15.40;99.90;;;;;;10099308;28;20036;-72
2023/10/07 01:11:40;;;;;;;9.90;4.93;;;15.40;99.90;;;;;;10097486;28;20048;-72
2023/10/07 01:21:31;;;;;;;10.38;4.88;;;15.20;99.90;;;;;;10098680;28;20036;-74
2023/10/07 01:26:28;;;;;;;13.02;5.68;;;15.20;99.90;;;;;;10085293;28;20033;-73
2023/10/07 01:31:18;;;;;;;7.57;4.35;;;15.10;99.90;;;;;;10096092;28;20080;-72
2023/10/07 01:36:24;;;;;;;11.18;4.57;;;15.10;99.90;;;;;;10090270;28;20607;-73
2023/10/07 01:41:21;;;;;;;7.93;4.15;;;15.20;99.90;;;;;;10084102;28;20064;-73
2023/10/07 01:46:19;;;;;;;7.93;5.10;;;15.00;99.90;;;;;;10077986;28;20029;-71
2023/10/07 01:51:14;;;;;;;9.05;4.25;;;15.00;99.90;;;;;;10097551;28;20074;-72
2023/10/07 01:56:06;;;;;;;7.63;3.95;;;15.10;99.90;;;;;;10083409;28;20029;-72
2023/10/07 02:00:59;;;;;;;14.68;4.30;;;15.00;99.90;;;;;;10094973;28;20439;-72
2023/10/07 02:05:51;;;;;;;9.20;3.92;;;15.00;99.90;;;;;;10089870;28;20029;-72
2023/10/07 02:10:42;;;;;;;8.48;3.15;;;14.90;99.90;;;;;;10071053;23;20060;-69
2023/10/07 02:15:37;;;;;;;6.70;3.75;;;14.90;99.90;;;;;;10035391;28;20037;-68
2023/10/07 02:20:29;;;;;;;6.32;3.95;;;14.90;99.90;;;;;;10037513;28;20025;-71
2023/10/07 02:25:23;;;;;;;8.48;3.58;;;14.80;99.90;;;;;;10042389;28;20034;-70
2023/10/07 02:30:20;;;;;;;8.05;3.40;;;14.70;99.90;;;;;;10055762;28;20022;-69
2023/10/07 02:35:11;;;;;;;6.47;3.58;;;14.60;99.90;;;;;;10059542;28;20499;-69
2023/10/07 02:40:22;;;;;;;8.98;4.32;;;14.50;99.90;;;;;;10066318;28;20096;-69
2023/10/07 02:50:10;;;;;;;4.53;2.97;;;14.70;99.90;;;;;;10051844;28;20411;-69
2023/10/07 02:55:47;;;;;;;9.93;3.38;;;14.60;99.90;;;;;;10038095;28;20068;-72
2023/10/07 03:00:49;;;;;;;5.07;2.88;;;14.50;99.90;;;;;;10059994;28;20506;-71
2023/10/07 03:05:45;;;;;;;8.05;4.40;;;14.30;99.90;;;;;;10051342;28;20383;-70
2023/10/07 03:10:43;;;;;;;10.65;3.38;;;14.40;99.90;;;;;;10034373;28;20050;-74
2023/10/07 03:20:28;;;;;;;8.43;4.47;;;14.40;99.90;;;;;;10053327;28;20096;-73
2023/10/07 03:25:18;;;;;;;6.28;3.00;;;14.20;99.90;;;;;;10041399;28;20493;-71
2023/10/07 03:30:13;;;;;;;6.90;4.00;;;14.20;99.90;;;;;;10044999;28;20186;-72
2023/10/07 03:35:16;;;;;;;6.15;3.47;;;14.10;99.90;;;;;;10033425;28;20058;-70
2023/10/07 03:40:26;;;;;;;7.85;4.45;;;14.20;99.90;;;;;;10052326;28;20041;-71
2023/10/07 03:45:17;;;;;;;6.80;3.80;;;14.20;99.90;;;;;;10039948;28;20133;-73
2023/10/07 03:50:24;;;;;;;7.35;3.55;;;14.10;99.90;;;;;;10034083;28;20034;-70
2023/10/07 03:55:15;;;;;;;6.40;3.53;;;14.20;99.90;;;;;;10036118;28;20128;-71
2023/10/07 04:00:11;;;;;;;6.55;3.13;;;14.20;99.90;;;;;;10047409;28;20101;-68
2023/10/07 04:05:10;;;;;;;8.35;3.75;;;14.10;99.90;;;;;;10051104;28;20056;-71
2023/10/07 04:15:12;;;;;;;5.53;3.22;;;14.10;99.90;;;;;;10054703;28;20084;-68
2023/10/07 04:20:18;;;;;;;6.18;3.33;;;14.00;99.90;;;;;;10044978;28;20513;-69
2023/10/07 04:25:17;;;;;;;7.82;4.15;;;13.90;99.90;;;;;;10041124;28;20021;-73
2023/10/07 04:30:10;;;;;;;7.60;3.72;;;13.90;99.90;;;;;;10036699;28;20041;-70
2023/10/07 04:35:16;;;;;;;5.45;3.05;;;13.90;99.90;;;;;;10042916;28;20057;-69
2023/10/07 04:45:22;;;;;;;7.28;4.57;;;14.00;99.90;;;;;;10037475;28;20123;-68
2023/10/07 04:55:03;;;;;;;7.80;3.80;;;13.70;99.90;;;;;;10029593;28;20463;-68
2023/10/07 04:59:56;;;;;;;11.38;4.32;;;13.70;99.90;;;;;;10038321;28;20520;-69
2023/10/07 05:04:50;;;;;;;5.63;3.28;;;13.60;99.90;;;;;;10049902;28;20037;-69
2023/10/07 05:09:41;;;;;;;6.75;3.28;;;13.60;99.90;;;;;;10032756;28;20069;-68
2023/10/07 05:14:32;;;;;;;7.07;3.55;;;13.60;99.90;;;;;;10035750;28;20030;-70
2023/10/07 05:19:24;;;;;;;8.73;3.45;;;13.60;99.90;;;;;;10052182;28;20033;-70
2023/10/07 05:24:17;;;;;;;7.88;3.80;;;13.40;99.90;;;;;;10042319;28;20099;-69
2023/10/07 05:29:12;;;;;;;8.88;3.47;;;13.40;99.90;;;;;;10032913;28;20029;-70
2023/10/07 05:34:04;;;;;;;8.02;3.53;;;13.40;99.90;;;;;;10050809;28;20112;-69
2023/10/07 05:38:58;;;;;;;6.80;3.58;;;13.40;99.90;;;;;;10049212;28;20061;-70
2023/10/07 05:43:55;;;;;;;8.13;3.50;;;13.40;99.90;;;;;;10044248;28;20126;-70
2023/10/07 05:48:46;;;;;;;8.15;3.70;;;13.40;99.90;;;;;;10036686;28;20036;-70
2023/10/07 05:53:39;;;;;;;6.25;3.70;;;13.40;99.90;;;;;;10034623;28;20099;-69
2023/10/07 05:58:30;;;;;;;8.82;4.25;;;13.30;99.90;;;;;;10051309;28;20037;-69
2023/10/07 06:03:20;;;;;;;8.85;4.00;;;13.20;99.90;;;;;;10038305;28;20098;-70
2023/10/07 06:08:11;;;;;;;7.30;3.33;;;13.30;99.90;;;;;;10031816;28;20284;-71
2023/10/07 06:13:14;;;;;;;5.35;2.97;;;13.30;99.90;;;;;;10037324;28;20037;-72
2023/10/07 06:18:07;;;;;;;7.88;4.78;;;13.30;99.90;;;;;;10039451;28;20038;-71
2023/10/07 06:22:57;;;;;;;6.43;3.90;;;13.30;99.90;;;;;;10035973;28;20025;-71
2023/10/07 06:27:50;;;;;;;7.32;3.83;;;13.40;99.90;;;;;;10045638;28;20030;-72
2023/10/07 06:32:54;;;;;;;7.90;4.30;;;13.30;99.90;;;;;;10043914;28;20030;-70
2023/10/07 06:37:46;;;;;;;6.88;3.60;;;13.30;99.90;;;;;;10030903;28;20391;-70
2023/10/07 06:42:40;;;;;;;6.65;3.90;;;13.30;99.90;;;;;;10052654;28;20042;-69
2023/10/07 06:47:32;;;;;;;8.10;3.58;;;13.30;99.90;;;;;;10038889;28;20510;-75
2023/10/07 06:52:22;;;;;;;8.55;4.18;;;13.40;99.90;;;;;;10040742;28;20029;-69
2023/10/07 06:57:13;;;;;;;5.28;3.65;;;13.40;99.90;;;;;;10044947;28;20129;-71
2023/10/07 07:02:10;;;;;;;7.78;3.90;;;13.50;99.90;;;;;;10037993;28;20041;-70
2023/10/07 07:07:10;;;;;;;6.18;4.22;;;13.50;99.90;;;;;;10044850;28;20113;-70
2023/10/07 07:12:03;;;;;;;8.50;3.97;;;13.50;99.90;;;;;;10053040;28;20029;-69
2023/10/07 07:16:56;;;;;;;8.30;3.67;;;13.50;99.90;;;;;;10061644;28;20033;-71
2023/10/07 07:21:48;;;;;;;8.00;3.88;;;13.60;99.90;;;;;;10056710;28;20716;-76
2023/10/07 07:26:39;;;;;;;10.60;4.75;;;13.70;99.90;;;;;;10046040;28;20403;-74
2023/10/07 07:31:34;;;;;;;9.18;4.57;;;13.80;99.90;;;;;;10052335;28;20046;-74
2023/10/07 07:36:37;;;;;;;5.47;2.87;;;13.90;99.90;;;;;;10034847;28;20507;-71
2023/10/07 07:41:34;;;;;;;7.13;3.47;;;13.90;99.90;;;;;;10050981;28;20026;-73
2023/10/07 07:46:26;;;;;;;11.77;3.20;;;14.00;99.90;;;;;;10040927;28;20026;-74
2023/10/07 07:51:17;;;;;;;7.50;4.32;;;14.10;99.90;;;;;;10034048;28;20490;-75
2023/10/07 07:56:12;;;;;;;6.90;3.60;;;14.20;99.90;;;;;;10052259;28;20049;-76
2023/10/07 08:01:06;;;;;;;6.25;2.92;;;14.20;99.90;;;;;;10041912;28;20036;-77
2023/10/07 08:05:56;;;;;;;7.78;3.25;;;14.30;99.90;;;;;;10048606;28;20046;-75
2023/10/07 08:10:48;;;;;;;6.75;3.20;;;14.50;99.90;;;;;;10034459;28;20126;-71
2023/10/07 08:15:41;;;;;;;11.30;4.00;;;14.60;99.90;;;;;;10044288;28;20128;-72
2023/10/07 08:20:44;;;;;;;6.22;3.17;;;14.70;99.90;;;;;;10039506;28;20488;-70
2023/10/07 08:25:45;;;;;;;8.70;3.30;;;14.70;99.90;;;;;;10045488;28;20041;-75
2023/10/07 08:30:39;;;;;;;8.10;3.42;;;14.90;99.90;;;;;;10054072;28;20025;-74
2023/10/07 08:35:34;;;;;;;6.63;3.83;;;14.80;99.90;;;;;;10036981;28;20040;-69
2023/10/07 08:40:29;;;;;;;5.07;2.78;;;14.90;99.90;;;;;;10051138;28;20026;-70
2023/10/07 08:45:25;;;;;;;6.93;3.38;;;15.00;99.90;;;;;;10047124;28;20022;-69
2023/10/07 08:50:23;;;;;;;8.32;2.50;;;15.00;99.90;;;;;;10028675;28;20049;-70
2023/10/07 08:55:14;;;;;;;6.35;3.10;;;15.00;99.90;;;;;;10041989;28;20494;-69
2023/10/07 09:00:14;;;;;;;5.85;3.05;;;15.00;99.90;;;;;;10042471;28;20075;-70
2023/10/07 09:05:19;;;;;;;6.15;2.88;;;15.00;99.90;;;;;;10038533;28;20026;-70
2023/10/07 09:10:14;;;;;;;5.88;2.97;;;15.00;99.90;;;;;;10026356;28;20046;-70
2023/10/07 09:15:12;;;;;;;6.68;3.65;;;15.10;99.90;;;;;;10046976;28;20458;-70
2023/10/07 09:20:06;;;;;;;5.93;2.55;;;15.20;99.90;;;;;;10060947;28;20022;-69
2023/10/07 09:25:17;;;;;;;5.38;2.97;;;15.30;99.90;;;;;;10046873;28;20029;-69
2023/10/07 09:35:25;;;;;;;5.22;2.40;;;15.40;99.90;;;;;;10037392;28;20072;-69
2023/10/07 09:40:53;;;;;;;6.35;3.53;;;15.40;99.90;;;;;;10054190;28;20025;-70
2023/10/07 09:45:32;;;;;;;6.65;2.60;;;15.60;99.90;;;;;;10049641;28;20040;-69
2023/10/07 09:50:27;;;;;;;6.10;2.92;;;15.70;99.90;;;;;;10055407;28;20021;-69
2023/10/07 09:55:38;;;;;;;5.87;3.80;;;15.70;99.90;;;;;;10058756;28;20029;-69
2023/10/07 10:01:02;;;;;;;6.47;2.92;;;15.90;99.90;;;;;;10065630;28;20033;-70
2023/10/07 10:06:16;;;;;;;5.68;3.05;;;15.90;99.90;;;;;;10038239;28;20041;-70
2023/10/07 10:11:30;;;;;;;7.63;3.30;;;16.10;99.90;;;;;;10045796;28;20144;-70
2023/10/07 10:16:29;;;;;;;7.45;3.38;;;16.10;99.90;;;;;;10062328;28;20041;-73
2023/10/07 10:21:23;;;;;;;5.82;2.53;;;16.20;99.90;;;;;;10045439;28;20106;-72
2023/10/07 10:26:26;;;;;;;5.93;2.97;;;16.20;99.90;;;;;;10055670;28;20032;-72
2023/10/07 10:31:21;;;;;;;7.30;2.97;;;16.30;99.90;;;;;;10081599;28;20039;-74
2023/10/07 10:36:13;;;;;;;6.72;3.00;;;16.30;99.90;;;;;;10085574;28;20064;-77
2023/10/07 10:41:04;;;;;;;6.13;3.17;;;16.30;99.90;;;;;;10066381;28;20025;-79
2023/10/07 10:46:06;;;;;;;8.70;3.60;;;16.40;99.90;;;;;;10074778;28;20040;-77
2023/10/07 10:50:58;;;;;;;5.45;2.38;;;16.50;99.90;;;;;;10083538;28;20033;-73
2023/10/07 10:55:50;;;;;;;5.00;3.05;;;16.50;99.90;;;;;;10083855;28;20044;-76
2023/10/07 11:00:49;;;;;;;6.30;3.05;;;16.70;99.90;;;;;;10070404;28;20025;-71
2023/10/07 11:05:39;;;;;;;3.83;2.92;;;16.70;99.90;;;;;;10063952;28;20075;-71
2023/10/07 11:10:31;;;;;;;4.35;3.10;;;16.80;99.90;;;;;;10037726;28;20061;-72
2023/10/07 11:15:25;;;;;;;6.18;3.35;;;16.80;99.90;;;;;;10065765;28;20041;-73
2023/10/07 11:20:19;;;;;;;6.30;3.15;;;16.90;99.90;;;;;;10047572;28;20036;-70
2023/10/07 11:25:14;;;;;;;4.68;2.80;;;17.00;99.90;;;;;;10037707;28;20521;-71
2023/10/07 11:30:09;;;;;;;7.32;3.08;;;17.10;99.90;;;;;;10064526;28;20094;-69
2023/10/07 11:35:02;;;;;;;6.05;2.90;;;17.10;99.90;;;;;;10056883;28;20095;-71
2023/10/07 11:39:53;;;;;;;5.38;3.58;;;17.10;99.90;;;;;;10055841;28;20092;-68
2023/10/07 11:44:49;;;;;;;6.25;2.30;;;17.10;99.90;;;;;;10048452;28;20159;-68
2023/10/07 11:49:40;;;;;;;7.47;3.25;;;17.30;99.90;;;;;;10048086;28;20052;-68
2023/10/07 11:54:37;;;;;;;5.25;2.92;;;17.30;99.90;;;;;;10061415;28;20037;-68
2023/10/07 11:59:28;;;;;;;5.95;2.75;;;17.50;99.90;;;;;;10059006;28;20360;-70
2023/10/07 12:04:21;;;;;;;4.25;2.58;;;17.60;99.90;;;;;;10058353;28;20304;-69
2023/10/07 12:09:12;;;;;;;3.95;2.10;;;17.80;99.90;;;;;;10042304;28;20076;-70
2023/10/07 12:14:03;;;;;;;4.60;2.05;;;17.90;99.90;;;;;;10062711;28;20029;-72
2023/10/07 12:18:54;;;;;;;3.92;2.08;;;18.00;99.90;;;;;;10062969;28;20049;-68
2023/10/07 12:23:44;;;;;;;6.30;2.58;;;18.10;99.90;;;;;;10046496;28;20034;-68
2023/10/07 12:28:36;;;;;;;3.28;1.67;;;18.20;99.90;;;;;;10047374;28;20049;-68
2023/10/07 12:33:27;;;;;;;3.38;1.98;;;18.30;99.90;;;;;;10039006;28;20164;-69
2023/10/07 12:38:19;;;;;;;4.68;2.22;;;18.40;99.90;;;;;;10038158;28;20046;-70
2023/10/07 12:43:10;;;;;;;3.85;2.17;;;18.40;99.90;;;;;;10040523;28;20025;-70
2023/10/07 12:48:03;;;;;;;3.90;1.63;;;18.60;99.90;;;;;;10058680;28;20053;-71
2023/10/07 12:52:55;;;;;;;3.30;1.98;;;18.60;99.90;;;;;;10051089;28;20115;-69
2023/10/07 12:57:50;;;;;;;5.13;2.50;;;18.80;99.90;;;;;;10053576;28;20104;-69
2023/10/07 13:02:40;;;;;;;4.30;2.13;;;18.90;99.90;;;;;;10052700;28;20037;-71
2023/10/07 13:07:33;;;;;;;4.63;2.13;;;19.10;99.90;;;;;;10061373;28;20438;-70
2023/10/07 13:12:24;;;;;;;4.95;2.17;;;19.20;99.90;;;;;;10048937;28;20048;-71
2023/10/07 13:17:15;;;;;;;5.35;2.55;;;19.40;99.90;;;;;;10044580;28;20069;-70
2023/10/07 13:22:06;;;;;;;4.93;1.90;;;19.40;99.90;;;;;;10056892;28;20021;-71
2023/10/07 13:26:56;;;;;;;4.32;2.13;;;19.50;99.90;;;;;;10041601;28;20375;-72
2023/10/07 13:31:47;;;;;;;4.03;1.85;;;19.50;99.90;;;;;;10037897;28;20033;-71
2023/10/07 13:36:38;;;;;;;4.40;2.13;;;19.50;99.90;;;;;;10035467;28;20090;-70
2023/10/07 13:41:29;;;;;;;7.13;2.55;;;19.60;99.90;;;;;;10045432;28;20072;-69
2023/10/07 13:46:19;;;;;;;3.72;2.30;;;19.80;99.90;;;;;;10046654;28;20045;-69
2023/10/07 13:51:10;;;;;;;5.30;2.92;;;20.00;99.90;;;;;;10036493;28;20436;-70
2023/10/07 13:56:10;;;;;;;5.57;2.28;;;20.20;99.90;;;;;;10043117;28;20038;-70
2023/10/07 14:01:01;;;;;;;2.83;1.83;;;20.20;99.90;;;;;;10038733;28;20033;-70
2023/10/07 14:05:58;;;;;;;4.03;2.10;;;20.40;99.90;;;;;;10042092;28;20033;-70
2023/10/07 14:10:50;;;;;;;3.67;1.88;;;20.50;99.90;;;;;;10027250;28;20060;-71
2023/10/07 14:15:41;;;;;;;3.90;1.83;;;20.70;99.90;;;;;;10047050;28;20069;-70
2023/10/07 14:20:33;;;;;;;6.93;2.05;;;20.80;99.90;;;;;;10045153;28;20024;-70
2023/10/07 14:25:27;;;;;;;5.97;1.63;;;21.00;99.90;;;;;;10046118;28;20151;-71
2023/10/07 14:30:18;;;;;;;6.80;2.33;;;21.10;99.90;;;;;;10041934;28;20030;-70
2023/10/07 14:35:11;;;;;;;4.70;2.33;;;21.20;99.90;;;;;;10039306;28;20034;-71
2023/10/07 14:40:04;;;;;;;6.13;2.50;;;21.30;99.90;;;;;;10044818;28;20034;-71
2023/10/07 14:44:55;;;;;;;5.95;2.88;;;21.40;99.90;;;;;;10050674;28;20026;-71
2023/10/07 14:49:46;;;;;;;3.95;2.15;;;21.60;99.90;;;;;;10031272;28;20116;-71
2023/10/07 14:54:37;;;;;;;5.47;3.03;;;21.70;99.90;;;;;;10049335;28;20032;-71
2023/10/07 14:59:28;;;;;;;3.33;1.83;;;21.80;99.90;;;;;;10049399;28;20040;-72
2023/10/07 15:04:20;;;;;;;5.07;2.85;;;22.00;99.90;;;;;;10053672;28;20117;-72
2023/10/07 15:09:20;;;;;;;4.97;2.25;;;22.10;99.90;;;;;;10033399;28;20467;-72
2023/10/07 15:14:12;;;;;;;3.90;2.08;;;22.10;99.90;;;;;;10048216;28;20217;-71
2023/10/07 15:19:05;;;;;;;4.70;2.47;;;22.20;99.90;;;;;;10047081;28;20387;-71
2023/10/07 15:23:56;;;;;;;4.85;2.63;;;22.20;99.90;;;;;;10050846;28;20022;-71
2023/10/07 15:28:47;;;;;;;6.30;3.33;;;22.30;99.90;;;;;;10029262;28;20035;-70
2023/10/07 15:33:56;;;;;;;5.05;2.60;;;22.40;99.90;;;;;;10038012;28;20506;-71
2023/10/07 15:38:48;;;;;;;4.43;3.03;;;22.40;99.90;;;;;;10048615;28;20045;-71
2023/10/07 15:43:39;;;;;;;5.45;2.60;;;22.40;99.90;;;;;;10053000;28;20026;-72
2023/10/07 15:48:30;;;;;;;5.35;3.15;;;22.40;99.90;;;;;;10043694;28;20038;-72
2023/10/07 15:53:21;;;;;;;5.47;2.83;;;22.50;99.90;;;;;;10037494;28;20120;-73
2023/10/07 15:58:12;;;;;;;4.25;2.35;;;22.50;99.90;;;;;;10056396;28;20033;-72
2023/10/07 16:03:04;;;;;;;4.75;2.30;;;22.50;99.90;;;;;;10040551;28;20035;-72
2023/10/07 16:07:58;;;;;;;5.45;2.33;;;22.40;99.90;;;;;;10044702;28;20168;-72
2023/10/07 16:12:50;;;;;;;3.53;2.40;;;22.20;99.90;;;;;;10040870;28;20079;-72
2023/10/07 16:17:40;;;;;;;7.13;2.80;;;22.10;99.90;;;;;;10050958;28;20037;-71
2023/10/07 16:22:31;;;;;;;5.63;2.92;;;22.00;99.90;;;;;;10043600;28;20022;-72
2023/10/07 16:27:21;;;;;;;6.85;3.72;;;22.00;99.90;;;;;;10040880;28;20025;-72
2023/10/07 16:32:13;;;;;;;18.05;8.48;;;21.90;99.90;;;;;;10045943;28;20022;-72
2023/10/07 16:37:03;;;;;;;13.13;7.55;;;21.80;99.90;;;;;;10039263;28;20032;-72
2023/10/07 16:41:54;;;;;;;7.78;4.78;;;21.70;99.90;;;;;;10048955;28;20041;-73
2023/10/07 16:46:46;;;;;;;10.20;4.93;;;21.70;99.90;;;;;;10034493;28;20033;-72
2023/10/07 16:51:36;;;;;;;6.80;5.25;;;21.60;99.90;;;;;;10035562;28;20041;-72
2023/10/07 16:56:27;;;;;;;7.32;4.32;;;21.60;99.90;;;;;;10049613;28;20534;-71
2023/10/07 17:01:18;;;;;;;9.60;5.07;;;21.60;99.90;;;;;;10062699;28;20152;-73
2023/10/07 17:06:09;;;;;;;12.30;6.85;;;21.60;99.90;;;;;;10053958;28;20032;-72
2023/10/07 17:11:00;;;;;;;19.65;9.50;;;21.60;99.90;;;;;;10035804;28;20054;-72
2023/10/07 17:15:55;;;;;;;19.38;8.25;;;21.50;99.90;;;;;;10046053;28;20248;-73
2023/10/07 17:20:47;;;;;;;10.75;6.38;;;21.50;99.90;;;;;;10047201;28;20026;-72
2023/10/07 17:25:39;;;;;;;10.82;5.47;;;21.50;99.90;;;;;;10037755;28;20025;-72
2023/10/07 17:30:31;;;;;;;9.63;5.00;;;21.40;99.90;;;;;;10039349;28;20053;-72
2023/10/07 17:35:21;;;;;;;11.65;4.50;;;21.40;99.90;;;;;;10041423;28;20084;-72
2023/10/07 17:40:15;;;;;;;11.05;5.70;;;21.40;99.90;;;;;;10056503;28;20441;-73
2023/10/07 17:45:12;;;;;;;9.88;4.75;;;21.40;99.90;;;;;;10053192;28;20061;-72
2023/10/07 17:50:03;;;;;;;10.75;5.65;;;21.30;99.90;;;;;;10038117;28;20030;-72
2023/10/07 17:54:55;;;;;;;13.30;6.00;;;21.30;99.90;;;;;;10029176;28;20499;-72
2023/10/07 17:59:46;;;;;;;9.95;5.30;;;21.20;99.90;;;;;;10033950;28;20029;-72
2023/10/07 18:04:36;;;;;;;11.38;5.35;;;21.10;99.90;;;;;;10042303;28;20132;-73
2023/10/07 18:09:28;;;;;;;15.65;6.00;;;21.10;99.90;;;;;;10023239;28;20053;-72
2023/10/07 18:14:18;;;;;;;12.65;5.30;;;21.10;99.90;;;;;;10054705;28;20208;-72
2023/10/07 18:19:10;;;;;;;8.77;5.10;;;21.10;99.90;;;;;;10045911;28;20033;-72
2023/10/07 18:24:00;;;;;;;13.60;6.25;;;21.00;99.90;;;;;;10058836;28;20049;-72
2023/10/07 18:28:51;;;;;;;14.77;6.47;;;20.90;99.90;;;;;;10050355;28;20028;-72
2023/10/07 18:33:42;;;;;;;13.30;7.50;;;21.00;99.90;;;;;;10040679;28;20038;-72
2023/10/07 18:38:32;;;;;;;10.88;6.55;;;21.00;99.90;;;;;;10049588;28;20388;-73
2023/10/07 18:43:23;;;;;;;18.48;8.02;;;20.90;99.90;;;;;;10042020;28;20125;-73
2023/10/07 18:48:14;;;;;;;12.98;7.47;;;20.90;99.90;;;;;;10031765;28;20105;-71
2023/10/07 18:53:05;;;;;;;15.45;6.50;;;20.80;99.90;;;;;;10028927;28;20022;-72
2023/10/07 18:57:55;;;;;;;23.13;12.63;;;20.80;99.90;;;;;;10036475;28;20045;-72
2023/10/07 19:02:46;;;;;;;22.45;13.35;;;20.80;99.90;;;;;;10047352;28;20029;-72
2023/10/07 19:07:37;;;;;;;22.88;9.85;;;20.70;99.90;;;;;;10046122;28;20403;-74
2023/10/07 19:12:29;;;;;;;19.80;8.63;;;20.70;99.90;;;;;;10040876;28;20026;-72
2023/10/07 19:17:20;;;;;;;17.73;8.88;;;20.60;99.90;;;;;;10043199;28;20412;-72
2023/10/07 19:22:11;;;;;;;14.43;7.07;;;20.70;99.90;;;;;;10062904;28;20024;-71
2023/10/07 19:27:02;;;;;;;14.50;7.05;;;20.60;99.90;;;;;;10042151;28;20037;-71
2023/10/07 19:31:54;;;;;;;15.20;7.60;;;20.60;99.90;;;;;;10046094;28;20025;-72
2023/10/07 19:36:45;;;;;;;15.15;6.65;;;20.50;99.90;;;;;;10046972;28;20068;-72
2023/10/07 19:41:36;;;;;;;14.38;8.13;;;20.40;99.90;;;;;;10067927;28;20030;-71
2023/10/07 19:46:27;;;;;;;13.45;6.63;;;20.40;99.90;;;;;;10058681;28;20033;-72
2023/10/07 19:51:18;;;;;;;10.95;5.70;;;20.40;99.90;;;;;;10050550;28;20118;-72
2023/10/07 19:56:08;;;;;;;12.80;5.40;;;20.30;99.90;;;;;;10044193;28;20514;-72
2023/10/07 20:01:05;;;;;;;9.00;5.18;;;20.40;99.90;;;;;;10054746;28;20104;-71
2023/10/07 20:05:56;;;;;;;12.23;5.78;;;20.30;99.90;;;;;;10055109;28;20038;-71
2023/10/07 20:10:48;;;;;;;9.98;5.38;;;20.20;99.90;;;;;;10043207;28;20077;-72
2023/10/07 20:15:42;;;;;;;11.27;5.00;;;20.20;99.90;;;;;;10042600;28;20503;-73
2023/10/07 20:20:34;;;;;;;9.15;5.05;;;20.20;99.90;;;;;;10049973;28;20029;-72
2023/10/07 20:25:26;;;;;;;8.10;4.95;;;20.20;99.90;;;;;;10046274;28;20097;-72
2023/10/07 20:30:19;;;;;;;8.57;3.70;;;20.10;99.90;;;;;;10039092;28;20097;-72
2023/10/07 20:35:10;;;;;;;7.55;3.55;;;20.10;99.90;;;;;;10041885;28;20038;-73
2023/10/07 20:40:04;;;;;;;6.43;3.45;;;20.00;99.90;;;;;;10054742;28;20030;-72
2023/10/07 20:44:54;;;;;;;8.80;4.55;;;19.90;99.90;;;;;;10048616;28;20057;-72
2023/10/07 20:49:45;;;;;;;8.55;3.92;;;19.90;99.90;;;;;;10046657;28;20325;-71
2023/10/07 20:54:36;;;;;;;7.43;4.05;;;19.90;99.90;;;;;;10047688;28;20112;-73
2023/10/07 20:59:30;;;;;;;6.07;3.60;;;19.80;99.90;;;;;;10058837;28;20034;-72
2023/10/07 21:04:20;;;;;;;13.32;4.43;;;19.70;99.90;;;;;;10057397;28;20383;-72
2023/10/07 21:09:11;;;;;;;7.97;4.30;;;19.60;99.90;;;;;;10050960;28;20049;-71
2023/10/07 21:14:01;;;;;;;7.65;4.65;;;19.50;99.90;;;;;;10055226;28;20040;-72
2023/10/07 21:18:54;;;;;;;8.82;4.25;;;19.60;99.90;;;;;;10055183;28;20133;-72
2023/10/07 21:23:46;;;;;;;8.32;4.80;;;19.50;99.90;;;;;;10046259;28;20026;-73
2023/10/07 21:28:37;;;;;;;9.43;4.53;;;19.40;99.90;;;;;;10043550;28;20029;-73
2023/10/07 21:33:28;;;;;;;7.25;3.38;;;19.30;99.90;;;;;;10040424;28;20480;-73
2023/10/07 21:38:18;;;;;;;7.07;4.07;;;19.30;99.90;;;;;;10054190;28;20037;-72
2023/10/07 21:43:10;;;;;;;7.72;3.90;;;19.30;99.90;;;;;;10059636;28;20459;-72
2023/10/07 21:48:01;;;;;;;5.13;2.97;;;19.30;99.90;;;;;;10038474;28;20025;-72
2023/10/07 21:52:55;;;;;;;6.57;2.92;;;19.20;99.90;;;;;;10032617;28;20055;-73
2023/10/07 21:57:48;;;;;;;8.53;4.27;;;19.20;99.90;;;;;;10052222;28;20040;-72
2023/10/07 22:02:39;;;;;;;5.38;3.50;;;19.10;99.90;;;;;;10041588;28;20272;-72
2023/10/07 22:07:30;;;;;;;8.93;3.97;;;19.10;99.90;;;;;;10048272;28;20045;-72
2023/10/07 22:12:21;;;;;;;6.93;4.22;;;19.00;99.90;;;;;;10045052;28;20033;-72
2023/10/07 22:17:13;;;;;;;8.30;4.63;;;18.90;99.90;;;;;;10046031;28;20029;-71
2023/10/07 22:22:04;;;;;;;7.28;3.80;;;18.90;99.90;;;;;;10053534;28;20025;-72
2023/10/07 22:26:56;;;;;;;5.22;3.25;;;18.90;99.90;;;;;;10038587;28;20090;-72
2023/10/07 22:31:48;;;;;;;7.35;4.63;;;18.90;99.90;;;;;;10043381;28;20030;-72
2023/10/07 22:36:44;;;;;;;9.45;3.95;;;18.80;99.90;;;;;;10035221;28;20037;-72
2023/10/07 22:41:37;;;;;;;6.22;3.63;;;18.70;99.90;;;;;;10056643;28;20091;-71
2023/10/07 22:46:31;;;;;;;5.82;3.80;;;18.70;99.90;;;;;;10051059;28;20041;-72
2023/10/07 22:51:22;;;;;;;6.18;3.15;;;18.60;99.90;;;;;;10049216;28;20696;-71
2023/10/07 22:56:15;;;;;;;6.15;3.28;;;18.60;99.90;;;;;;10050858;28;20052;-71
2023/10/07 23:01:15;;;;;;;7.10;3.67;;;18.60;99.90;;;;;;10054606;28;20052;-71
2023/10/07 23:06:17;;;;;;;6.45;3.55;;;18.60;99.90;;;;;;10057364;28;20033;-71
2023/10/07 23:11:09;;;;;;;7.75;3.53;;;18.70;99.90;;;;;;10039159;28;20416;-71
2023/10/07 23:16:07;;;;;;;7.93;3.97;;;18.60;99.90;;;;;;10048406;28;20121;-71
2023/10/07 23:21:03;;;;;;;6.55;3.78;;;18.50;99.90;;;;;;10054119;28;20327;-71
2023/10/07 23:25:57;;;;;;;5.97;3.20;;;18.50;99.90;;;;;;10043807;28;20136;-72
2023/10/07 23:36:03;;;;;;;10.18;5.18;;;18.60;99.90;;;;;;10053785;28;20073;-71
2023/10/07 23:40:56;;;;;;;8.77;4.45;;;18.50;99.90;;;;;;10064704;28;20091;-72
2023/10/07 23:45:51;;;;;;;9.70;4.85;;;18.40;99.90;;;;;;10044639;28;20038;-71
2023/10/07 23:50:42;;;;;;;9.07;5.33;;;18.40;99.90;;;;;;10037654;28;20044;-71
2023/10/07 23:55:33;;;;;;;10.15;5.18;;;18.30;99.90;;;;;;10046411;28;20048;-71
